sensor_id;sensor_type;location;lat;lon;timestamp;P1;durP1;ratioP1;P2;durP2;ratioP2
63880;SDS011;50046;46.672;11.152;2022-07-03T00:00:10;18.77;;;7.03;;
63880;SDS011;50046;46.672;11.152;2022-07-03T00:00:21;19.00;;;7.23;;
63880;SDS011;50046;46.672;11.152;2022-07-03T00:00:31;19.17;;;7.25;;
63880;SDS011;50046;46.672;11.152;2022-07-03T00:00:42;18.73;;;7.40;;
63880;SDS011;50046;46.672;11.152;2022-07-03T00:00:52;17.45;;;7.20;;
63880;SDS011;50046;46.672;11.152;2022-07-03T00:01:03;16.37;;;7.07;;
63880;SDS011;50046;46.672;11.152;2022-07-03T00:01:17;16.90;;;6.90;;
63880;SDS011;50046;46.672;11.152;2022-07-03T00:01:27;17.05;;;7.07;;
63880;SDS011;50046;46.672;11.152;2022-07-03T00:01:38;17.23;;;7.17;;
63880;SDS011;50046;46.672;11.152;2022-07-03T00:01:48;16.60;;;7.07;;
63880;SDS011;50046;46.672;11.152;2022-07-03T00:01:59;16.37;;;7.00;;
63880;SDS011;50046;46.672;11.152;2022-07-03T00:02:09;16.90;;;7.33;;
63880;SDS011;50046;46.672;11.152;2022-07-03T00:02:20;17.58;;;7.53;;
63880;SDS011;50046;46.672;11.152;2022-07-03T00:02:30;17.73;;;7.65;;
63880;SDS011;50046;46.672;11.152;2022-07-03T00:02:41;17.53;;;7.07;;
63880;SDS011;50046;46.672;11.152;2022-07-03T00:02:51;16.97;;;6.87;;
63880;SDS011;50046;46.672;11.152;2022-07-03T00:03:02;17.85;;;6.88;;
63880;SDS011;50046;46.672;11.152;2022-07-03T00:03:12;17.97;;;7.03;;
63880;SDS011;50046;46.672;11.152;2022-07-03T00:03:23;18.80;;;6.90;;
63880;SDS011;50046;46.672;11.152;2022-07-03T00:03:33;16.77;;;6.70;;
63880;SDS011;50046;46.672;11.152;2022-07-03T00:03:43;15.73;;;6.60;;
63880;SDS011;50046;46.672;11.152;2022-07-03T00:03:54;13.90;;;6.60;;
63880;SDS011;50046;46.672;11.152;2022-07-03T00:04:04;15.50;;;6.60;;
63880;SDS011;50046;46.672;11.152;2022-07-03T00:04:15;16.65;;;6.72;;
63880;SDS011;50046;46.672;11.152;2022-07-03T00:04:25;18.50;;;7.03;;
63880;SDS011;50046;46.672;11.152;2022-07-03T00:04:36;17.83;;;7.28;;
63880;SDS011;50046;46.672;11.152;2022-07-03T00:04:46;16.97;;;7.43;;
63880;SDS011;50046;46.672;11.152;2022-07-03T00:04:57;17.03;;;7.37;;
63880;SDS011;50046;46.672;11.152;2022-07-03T00:05:07;17.23;;;7.20;;
63880;SDS011;50046;46.672;11.152;2022-07-03T00:05:18;18.65;;;7.25;;
63880;SDS011;50046;46.672;11.152;2022-07-03T00:05:29;17.27;;;7.13;;
63880;SDS011;50046;46.672;11.152;2022-07-03T00:05:40;16.88;;;7.25;;
63880;SDS011;50046;46.672;11.152;2022-07-03T00:05:50;16.60;;;7.15;;
63880;SDS011;50046;46.672;11.152;2022-07-03T00:06:00;16.87;;;7.20;;
63880;SDS011;50046;46.672;11.152;2022-07-03T00:06:11;17.07;;;7.20;;
63880;SDS011;50046;46.672;11.152;2022-07-03T00:06:21;18.70;;;7.35;;
63880;SDS011;50046;46.672;11.152;2022-07-03T00:06:32;19.60;;;7.43;;
63880;SDS011;50046;46.672;11.152;2022-07-03T00:06:43;18.80;;;7.37;;
63880;SDS011;50046;46.672;11.152;2022-07-03T00:06:54;17.40;;;7.22;;
63880;SDS011;50046;46.672;11.152;2022-07-03T00:07:04;17.60;;;6.93;;
63880;SDS011;50046;46.672;11.152;2022-07-03T00:07:15;16.27;;;6.90;;
63880;SDS011;50046;46.672;11.152;2022-07-03T00:07:25;16.70;;;7.10;;
63880;SDS011;50046;46.672;11.152;2022-07-03T00:07:36;16.63;;;7.30;;
63880;SDS011;50046;46.672;11.152;2022-07-03T00:07:48;17.38;;;7.40;;
63880;SDS011;50046;46.672;11.152;2022-07-03T00:07:58;15.90;;;7.03;;
63880;SDS011;50046;46.672;11.152;2022-07-03T00:08:09;15.23;;;6.80;;
63880;SDS011;50046;46.672;11.152;2022-07-03T00:08:19;15.27;;;6.60;;
63880;SDS011;50046;46.672;11.152;2022-07-03T00:08:30;17.73;;;7.00;;
63880;SDS011;50046;46.672;11.152;2022-07-03T00:08:40;18.70;;;7.10;;
63880;SDS011;50046;46.672;11.152;2022-07-03T00:08:51;18.50;;;7.23;;
63880;SDS011;50046;46.672;11.152;2022-07-03T00:09:03;17.35;;;7.13;;
63880;SDS011;50046;46.672;11.152;2022-07-03T00:09:15;17.92;;;7.22;;
63880;SDS011;50046;46.672;11.152;2022-07-03T00:09:25;17.25;;;7.05;;
63880;SDS011;50046;46.672;11.152;2022-07-03T00:09:37;16.70;;;7.07;;
63880;SDS011;50046;46.672;11.152;2022-07-03T00:09:47;17.05;;;7.18;;
63880;SDS011;50046;46.672;11.152;2022-07-03T00:09:57;17.23;;;7.10;;
63880;SDS011;50046;46.672;11.152;2022-07-03T00:10:08;16.77;;;7.05;;
63880;SDS011;50046;46.672;11.152;2022-07-03T00:10:19;17.20;;;7.13;;
63880;SDS011;50046;46.672;11.152;2022-07-03T00:10:29;17.83;;;7.23;;
63880;SDS011;50046;46.672;11.152;2022-07-03T00:10:39;17.80;;;7.17;;
63880;SDS011;50046;46.672;11.152;2022-07-03T00:10:50;17.30;;;6.97;;
63880;SDS011;50046;46.672;11.152;2022-07-03T00:11:00;16.90;;;7.07;;
63880;SDS011;50046;46.672;11.152;2022-07-03T00:11:11;18.48;;;7.25;;
63880;SDS011;50046;46.672;11.152;2022-07-03T00:11:21;18.90;;;7.57;;
63880;SDS011;50046;46.672;11.152;2022-07-03T00:11:32;18.88;;;7.55;;
63880;SDS011;50046;46.672;11.152;2022-07-03T00:11:43;18.07;;;7.50;;
63880;SDS011;50046;46.672;11.152;2022-07-03T00:11:53;18.13;;;7.28;;
63880;SDS011;50046;46.672;11.152;2022-07-03T00:12:04;18.03;;;7.30;;
63880;SDS011;50046;46.672;11.152;2022-07-03T00:12:14;17.88;;;7.32;;
63880;SDS011;50046;46.672;11.152;2022-07-03T00:12:25;17.95;;;7.47;;
63880;SDS011;50046;46.672;11.152;2022-07-03T00:12:37;18.08;;;7.45;;
63880;SDS011;50046;46.672;11.152;2022-07-03T00:12:47;18.33;;;7.50;;
63880;SDS011;50046;46.672;11.152;2022-07-03T00:12:58;17.77;;;7.30;;
63880;SDS011;50046;46.672;11.152;2022-07-03T00:13:08;17.45;;;7.30;;
63880;SDS011;50046;46.672;11.152;2022-07-03T00:13:19;18.20;;;7.23;;
63880;SDS011;50046;46.672;11.152;2022-07-03T00:13:29;18.50;;;7.28;;
63880;SDS011;50046;46.672;11.152;2022-07-03T00:13:39;18.10;;;7.13;;
63880;SDS011;50046;46.672;11.152;2022-07-03T00:13:50;17.40;;;7.10;;
63880;SDS011;50046;46.672;11.152;2022-07-03T00:14:00;16.88;;;7.18;;
63880;SDS011;50046;46.672;11.152;2022-07-03T00:14:11;17.43;;;7.23;;
63880;SDS011;50046;46.672;11.152;2022-07-03T00:14:21;16.73;;;7.30;;
63880;SDS011;50046;46.672;11.152;2022-07-03T00:14:31;16.90;;;7.40;;
63880;SDS011;50046;46.672;11.152;2022-07-03T00:14:42;16.15;;;7.32;;
63880;SDS011;50046;46.672;11.152;2022-07-03T00:14:53;16.47;;;7.10;;
63880;SDS011;50046;46.672;11.152;2022-07-03T00:15:03;16.40;;;6.80;;
63880;SDS011;50046;46.672;11.152;2022-07-03T00:15:14;16.43;;;6.80;;
63880;SDS011;50046;46.672;11.152;2022-07-03T00:15:25;16.23;;;7.00;;
63880;SDS011;50046;46.672;11.152;2022-07-03T00:15:35;16.37;;;7.23;;
63880;SDS011;50046;46.672;11.152;2022-07-03T00:15:46;17.33;;;7.18;;
63880;SDS011;50046;46.672;11.152;2022-07-03T00:15:56;18.23;;;7.25;;
63880;SDS011;50046;46.672;11.152;2022-07-03T00:16:07;18.17;;;7.20;;
63880;SDS011;50046;46.672;11.152;2022-07-03T00:16:17;17.88;;;7.20;;
63880;SDS011;50046;46.672;11.152;2022-07-03T00:16:28;17.37;;;7.00;;
63880;SDS011;50046;46.672;11.152;2022-07-03T00:16:38;18.10;;;7.07;;
63880;SDS011;50046;46.672;11.152;2022-07-03T00:16:49;17.35;;;7.03;;
63880;SDS011;50046;46.672;11.152;2022-07-03T00:16:59;18.20;;;7.20;;
63880;SDS011;50046;46.672;11.152;2022-07-03T00:17:09;17.83;;;7.22;;
63880;SDS011;50046;46.672;11.152;2022-07-03T00:17:20;18.13;;;7.37;;
63880;SDS011;50046;46.672;11.152;2022-07-03T00:17:30;17.70;;;7.33;;
63880;SDS011;50046;46.672;11.152;2022-07-03T00:17:41;17.42;;;7.20;;
63880;SDS011;50046;46.672;11.152;2022-07-03T00:17:51;17.60;;;7.00;;
63880;SDS011;50046;46.672;11.152;2022-07-03T00:18:02;17.58;;;6.80;;
63880;SDS011;50046;46.672;11.152;2022-07-03T00:18:12;17.37;;;6.93;;
63880;SDS011;50046;46.672;11.152;2022-07-03T00:18:22;17.70;;;7.27;;
63880;SDS011;50046;46.672;11.152;2022-07-03T00:18:33;17.10;;;7.32;;
63880;SDS011;50046;46.672;11.152;2022-07-03T00:18:43;16.57;;;7.33;;
63880;SDS011;50046;46.672;11.152;2022-07-03T00:18:54;16.33;;;7.37;;
63880;SDS011;50046;46.672;11.152;2022-07-03T00:19:04;17.77;;;7.40;;
63880;SDS011;50046;46.672;11.152;2022-07-03T00:19:14;18.30;;;7.40;;
63880;SDS011;50046;46.672;11.152;2022-07-03T00:19:25;16.80;;;7.18;;
63880;SDS011;50046;46.672;11.152;2022-07-03T00:19:35;15.97;;;7.20;;
63880;SDS011;50046;46.672;11.152;2022-07-03T00:19:46;15.60;;;7.03;;
63880;SDS011;50046;46.672;11.152;2022-07-03T00:19:56;17.35;;;7.28;;
63880;SDS011;50046;46.672;11.152;2022-07-03T00:20:07;16.77;;;7.20;;
63880;SDS011;50046;46.672;11.152;2022-07-03T00:20:19;16.27;;;7.13;;
63880;SDS011;50046;46.672;11.152;2022-07-03T00:20:30;15.60;;;7.07;;
63880;SDS011;50046;46.672;11.152;2022-07-03T00:20:53;16.10;;;7.10;;
63880;SDS011;50046;46.672;11.152;2022-07-03T00:21:09;16.75;;;7.25;;
63880;SDS011;50046;46.672;11.152;2022-07-03T00:21:24;16.80;;;7.28;;
63880;SDS011;50046;46.672;11.152;2022-07-03T00:21:40;15.55;;;6.95;;
63880;SDS011;50046;46.672;11.152;2022-07-03T00:21:56;16.42;;;6.80;;
63880;SDS011;50046;46.672;11.152;2022-07-03T00:22:09;17.95;;;6.88;;
63880;SDS011;50046;46.672;11.152;2022-07-03T00:22:23;18.60;;;6.95;;
63880;SDS011;50046;46.672;11.152;2022-07-03T00:22:36;17.90;;;7.00;;
63880;SDS011;50046;46.672;11.152;2022-07-03T00:22:51;16.92;;;6.97;;
63880;SDS011;50046;46.672;11.152;2022-07-03T00:23:02;16.60;;;7.07;;
63880;SDS011;50046;46.672;11.152;2022-07-03T00:23:19;15.50;;;7.10;;
63880;SDS011;50046;46.672;11.152;2022-07-03T00:23:40;15.98;;;7.10;;
63880;SDS011;50046;46.672;11.152;2022-07-03T00:24:52;16.55;;;6.90;;
63880;SDS011;50046;46.672;11.152;2022-07-03T00:25:05;16.30;;;7.20;;
63880;SDS011;50046;46.672;11.152;2022-07-03T00:25:16;16.48;;;7.00;;
63880;SDS011;50046;46.672;11.152;2022-07-03T00:25:28;15.95;;;6.78;;
63880;SDS011;50046;46.672;11.152;2022-07-03T00:25:39;14.77;;;6.77;;
63880;SDS011;50046;46.672;11.152;2022-07-03T00:25:50;14.85;;;6.70;;
63880;SDS011;50046;46.672;11.152;2022-07-03T00:26:01;15.68;;;6.70;;
63880;SDS011;50046;46.672;11.152;2022-07-03T00:26:14;16.40;;;6.65;;
63880;SDS011;50046;46.672;11.152;2022-07-03T00:26:29;15.80;;;6.55;;
63880;SDS011;50046;46.672;11.152;2022-07-03T00:26:43;14.55;;;6.78;;
63880;SDS011;50046;46.672;11.152;2022-07-03T00:26:55;15.45;;;6.82;;
63880;SDS011;50046;46.672;11.152;2022-07-03T00:27:08;16.95;;;6.75;;
63880;SDS011;50046;46.672;11.152;2022-07-03T00:27:20;17.63;;;6.78;;
63880;SDS011;50046;46.672;11.152;2022-07-03T00:27:34;17.50;;;6.97;;
63880;SDS011;50046;46.672;11.152;2022-07-03T00:27:45;18.08;;;7.22;;
63880;SDS011;50046;46.672;11.152;2022-07-03T00:27:57;17.75;;;7.13;;
63880;SDS011;50046;46.672;11.152;2022-07-03T00:28:08;15.70;;;6.87;;
63880;SDS011;50046;46.672;11.152;2022-07-03T00:28:19;15.20;;;6.78;;
63880;SDS011;50046;46.672;11.152;2022-07-03T00:28:29;14.48;;;6.60;;
63880;SDS011;50046;46.672;11.152;2022-07-03T00:28:41;14.40;;;6.40;;
63880;SDS011;50046;46.672;11.152;2022-07-03T00:28:53;15.55;;;6.60;;
63880;SDS011;50046;46.672;11.152;2022-07-03T00:29:09;15.43;;;6.57;;
63880;SDS011;50046;46.672;11.152;2022-07-03T00:29:22;14.20;;;6.40;;
63880;SDS011;50046;46.672;11.152;2022-07-03T00:29:36;15.23;;;6.78;;
63880;SDS011;50046;46.672;11.152;2022-07-03T00:29:49;16.75;;;6.97;;
63880;SDS011;50046;46.672;11.152;2022-07-03T00:30:01;16.25;;;6.90;;
63880;SDS011;50046;46.672;11.152;2022-07-03T00:30:13;15.25;;;6.80;;
63880;SDS011;50046;46.672;11.152;2022-07-03T00:30:23;15.53;;;6.70;;
63880;SDS011;50046;46.672;11.152;2022-07-03T00:30:34;15.85;;;6.70;;
63880;SDS011;50046;46.672;11.152;2022-07-03T00:30:48;15.90;;;6.57;;
63880;SDS011;50046;46.672;11.152;2022-07-03T00:30:59;15.98;;;6.60;;
63880;SDS011;50046;46.672;11.152;2022-07-03T00:31:10;16.33;;;6.63;;
63880;SDS011;50046;46.672;11.152;2022-07-03T00:31:21;15.85;;;6.68;;
63880;SDS011;50046;46.672;11.152;2022-07-03T00:31:33;14.73;;;6.90;;
63880;SDS011;50046;46.672;11.152;2022-07-03T00:31:43;15.33;;;6.97;;
63880;SDS011;50046;46.672;11.152;2022-07-03T00:31:54;16.00;;;7.10;;
63880;SDS011;50046;46.672;11.152;2022-07-03T00:32:06;16.75;;;6.93;;
63880;SDS011;50046;46.672;11.152;2022-07-03T00:32:21;15.30;;;6.53;;
63880;SDS011;50046;46.672;11.152;2022-07-03T00:32:33;14.75;;;6.35;;
63880;SDS011;50046;46.672;11.152;2022-07-03T00:32:48;15.38;;;6.60;;
63880;SDS011;50046;46.672;11.152;2022-07-03T00:33:03;15.02;;;6.68;;
63880;SDS011;50046;46.672;11.152;2022-07-03T00:33:15;15.05;;;6.78;;
63880;SDS011;50046;46.672;11.152;2022-07-03T00:33:27;16.08;;;6.90;;
63880;SDS011;50046;46.672;11.152;2022-07-03T00:33:40;16.55;;;6.90;;
63880;SDS011;50046;46.672;11.152;2022-07-03T00:33:51;16.40;;;7.00;;
63880;SDS011;50046;46.672;11.152;2022-07-03T00:34:05;15.88;;;6.93;;
63880;SDS011;50046;46.672;11.152;2022-07-03T00:34:21;14.68;;;6.68;;
63880;SDS011;50046;46.672;11.152;2022-07-03T00:34:37;13.95;;;6.60;;
63880;SDS011;50046;46.672;11.152;2022-07-03T00:34:49;14.13;;;6.60;;
63880;SDS011;50046;46.672;11.152;2022-07-03T00:35:01;14.40;;;6.55;;
63880;SDS011;50046;46.672;11.152;2022-07-03T00:35:14;15.60;;;6.80;;
63880;SDS011;50046;46.672;11.152;2022-07-03T00:35:26;15.07;;;6.80;;
63880;SDS011;50046;46.672;11.152;2022-07-03T00:35:39;15.20;;;6.80;;
63880;SDS011;50046;46.672;11.152;2022-07-03T00:35:52;15.35;;;6.75;;
63880;SDS011;50046;46.672;11.152;2022-07-03T00:36:04;16.52;;;6.65;;
63880;SDS011;50046;46.672;11.152;2022-07-03T00:36:16;17.50;;;6.70;;
63880;SDS011;50046;46.672;11.152;2022-07-03T00:36:34;17.58;;;6.70;;
63880;SDS011;50046;46.672;11.152;2022-07-03T00:36:47;16.30;;;6.65;;
63880;SDS011;50046;46.672;11.152;2022-07-03T00:36:58;16.13;;;6.65;;
63880;SDS011;50046;46.672;11.152;2022-07-03T00:37:11;15.98;;;6.55;;
63880;SDS011;50046;46.672;11.152;2022-07-03T00:37:22;15.73;;;6.63;;
63880;SDS011;50046;46.672;11.152;2022-07-03T00:37:33;16.50;;;6.88;;
63880;SDS011;50046;46.672;11.152;2022-07-03T00:37:44;16.35;;;6.90;;
63880;SDS011;50046;46.672;11.152;2022-07-03T00:37:55;16.52;;;6.97;;
63880;SDS011;50046;46.672;11.152;2022-07-03T00:38:05;15.57;;;6.90;;
63880;SDS011;50046;46.672;11.152;2022-07-03T00:38:15;14.98;;;6.80;;
63880;SDS011;50046;46.672;11.152;2022-07-03T00:38:26;14.53;;;6.70;;
63880;SDS011;50046;46.672;11.152;2022-07-03T00:38:37;15.88;;;6.88;;
63880;SDS011;50046;46.672;11.152;2022-07-03T00:38:48;17.27;;;7.00;;
63880;SDS011;50046;46.672;11.152;2022-07-03T00:38:59;17.90;;;7.00;;
63880;SDS011;50046;46.672;11.152;2022-07-03T00:39:10;17.85;;;7.00;;
63880;SDS011;50046;46.672;11.152;2022-07-03T00:39:20;17.50;;;7.00;;
63880;SDS011;50046;46.672;11.152;2022-07-03T00:39:30;16.90;;;7.20;;
63880;SDS011;50046;46.672;11.152;2022-07-03T00:39:42;15.27;;;7.05;;
63880;SDS011;50046;46.672;11.152;2022-07-03T00:39:53;15.02;;;6.85;;
63880;SDS011;50046;46.672;11.152;2022-07-03T00:40:04;15.80;;;6.72;;
63880;SDS011;50046;46.672;11.152;2022-07-03T00:40:15;16.35;;;6.65;;
63880;SDS011;50046;46.672;11.152;2022-07-03T00:40:26;15.97;;;6.73;;
63880;SDS011;50046;46.672;11.152;2022-07-03T00:40:36;15.10;;;6.70;;
63880;SDS011;50046;46.672;11.152;2022-07-03T00:40:47;15.93;;;6.82;;
63880;SDS011;50046;46.672;11.152;2022-07-03T00:40:58;17.37;;;7.00;;
63880;SDS011;50046;46.672;11.152;2022-07-03T00:41:09;16.52;;;6.97;;
63880;SDS011;50046;46.672;11.152;2022-07-03T00:41:35;16.67;;;6.70;;
63880;SDS011;50046;46.672;11.152;2022-07-03T00:41:46;16.13;;;6.53;;
63880;SDS011;50046;46.672;11.152;2022-07-03T00:42:00;15.90;;;6.60;;
63880;SDS011;50046;46.672;11.152;2022-07-03T00:42:12;17.90;;;6.88;;
63880;SDS011;50046;46.672;11.152;2022-07-03T00:42:22;17.15;;;6.82;;
63880;SDS011;50046;46.672;11.152;2022-07-03T00:42:34;15.48;;;6.80;;
63880;SDS011;50046;46.672;11.152;2022-07-03T00:42:49;15.13;;;6.63;;
63880;SDS011;50046;46.672;11.152;2022-07-03T00:43:01;15.47;;;6.70;;
63880;SDS011;50046;46.672;11.152;2022-07-03T00:43:13;15.73;;;6.90;;
63880;SDS011;50046;46.672;11.152;2022-07-03T00:43:25;15.40;;;7.00;;
63880;SDS011;50046;46.672;11.152;2022-07-03T00:43:36;14.25;;;6.80;;
63880;SDS011;50046;46.672;11.152;2022-07-03T00:43:47;15.55;;;6.93;;
63880;SDS011;50046;46.672;11.152;2022-07-03T00:43:58;15.40;;;6.70;;
63880;SDS011;50046;46.672;11.152;2022-07-03T00:44:08;15.90;;;6.80;;
63880;SDS011;50046;46.672;11.152;2022-07-03T00:44:19;17.27;;;6.90;;
63880;SDS011;50046;46.672;11.152;2022-07-03T00:44:31;18.52;;;7.00;;
63880;SDS011;50046;46.672;11.152;2022-07-03T00:44:51;18.23;;;6.75;;
63880;SDS011;50046;46.672;11.152;2022-07-03T00:45:02;17.58;;;6.70;;
63880;SDS011;50046;46.672;11.152;2022-07-03T00:45:19;17.60;;;6.78;;
63880;SDS011;50046;46.672;11.152;2022-07-03T00:45:33;17.60;;;7.03;;
63880;SDS011;50046;46.672;11.152;2022-07-03T00:45:48;16.65;;;7.07;;
63880;SDS011;50046;46.672;11.152;2022-07-03T00:46:08;15.70;;;6.60;;
63880;SDS011;50046;46.672;11.152;2022-07-03T00:46:21;15.95;;;6.72;;
63880;SDS011;50046;46.672;11.152;2022-07-03T00:46:33;15.75;;;6.90;;
63880;SDS011;50046;46.672;11.152;2022-07-03T00:46:48;14.30;;;6.90;;
63880;SDS011;50046;46.672;11.152;2022-07-03T00:47:02;14.52;;;6.60;;
63880;SDS011;50046;46.672;11.152;2022-07-03T00:47:17;14.95;;;6.40;;
63880;SDS011;50046;46.672;11.152;2022-07-03T00:47:32;16.33;;;6.50;;
63880;SDS011;50046;46.672;11.152;2022-07-03T00:47:46;16.35;;;6.60;;
63880;SDS011;50046;46.672;11.152;2022-07-03T00:47:57;15.55;;;6.65;;
63880;SDS011;50046;46.672;11.152;2022-07-03T00:48:08;15.53;;;6.50;;
63880;SDS011;50046;46.672;11.152;2022-07-03T00:48:20;15.38;;;6.82;;
63880;SDS011;50046;46.672;11.152;2022-07-03T00:48:31;16.23;;;6.97;;
63880;SDS011;50046;46.672;11.152;2022-07-03T00:48:47;18.48;;;7.20;;
63880;SDS011;50046;46.672;11.152;2022-07-03T00:48:59;18.73;;;7.00;;
63880;SDS011;50046;46.672;11.152;2022-07-03T00:49:14;17.45;;;6.95;;
63880;SDS011;50046;46.672;11.152;2022-07-03T00:49:27;16.20;;;6.70;;
63880;SDS011;50046;46.672;11.152;2022-07-03T00:49:43;16.30;;;6.40;;
63880;SDS011;50046;46.672;11.152;2022-07-03T00:49:57;16.40;;;6.47;;
63880;SDS011;50046;46.672;11.152;2022-07-03T00:50:08;15.23;;;6.45;;
63880;SDS011;50046;46.672;11.152;2022-07-03T00:50:19;15.77;;;6.57;;
63880;SDS011;50046;46.672;11.152;2022-07-03T00:50:35;15.13;;;6.70;;
63880;SDS011;50046;46.672;11.152;2022-07-03T00:50:47;14.93;;;6.70;;
63880;SDS011;50046;46.672;11.152;2022-07-03T00:51:00;14.10;;;6.55;;
63880;SDS011;50046;46.672;11.152;2022-07-03T00:51:11;13.68;;;6.15;;
63880;SDS011;50046;46.672;11.152;2022-07-03T00:51:28;14.88;;;6.13;;
63880;SDS011;50046;46.672;11.152;2022-07-03T00:51:39;15.02;;;6.47;;
63880;SDS011;50046;46.672;11.152;2022-07-03T00:51:51;14.18;;;6.40;;
63880;SDS011;50046;46.672;11.152;2022-07-03T00:52:03;14.20;;;6.25;;
63880;SDS011;50046;46.672;11.152;2022-07-03T00:52:15;15.15;;;6.22;;
63880;SDS011;50046;46.672;11.152;2022-07-03T00:52:29;15.85;;;6.38;;
63880;SDS011;50046;46.672;11.152;2022-07-03T00:52:45;14.95;;;6.30;;
63880;SDS011;50046;46.672;11.152;2022-07-03T00:52:57;14.10;;;6.30;;
63880;SDS011;50046;46.672;11.152;2022-07-03T00:53:10;14.70;;;6.25;;
63880;SDS011;50046;46.672;11.152;2022-07-03T00:53:26;15.52;;;6.28;;
63880;SDS011;50046;46.672;11.152;2022-07-03T00:53:39;16.45;;;6.30;;
63880;SDS011;50046;46.672;11.152;2022-07-03T00:53:52;16.40;;;6.22;;
63880;SDS011;50046;46.672;11.152;2022-07-03T00:54:04;15.25;;;6.20;;
63880;SDS011;50046;46.672;11.152;2022-07-03T00:54:19;13.02;;;6.10;;
63880;SDS011;50046;46.672;11.152;2022-07-03T00:54:32;13.43;;;6.10;;
63880;SDS011;50046;46.672;11.152;2022-07-03T00:54:45;13.75;;;5.90;;
63880;SDS011;50046;46.672;11.152;2022-07-03T00:55:08;14.35;;;6.20;;
63880;SDS011;50046;46.672;11.152;2022-07-03T00:55:24;14.52;;;6.30;;
63880;SDS011;50046;46.672;11.152;2022-07-03T00:55:36;15.15;;;6.40;;
63880;SDS011;50046;46.672;11.152;2022-07-03T00:55:51;14.70;;;6.30;;
63880;SDS011;50046;46.672;11.152;2022-07-03T00:56:04;13.15;;;5.97;;
63880;SDS011;50046;46.672;11.152;2022-07-03T00:56:15;12.82;;;6.00;;
63880;SDS011;50046;46.672;11.152;2022-07-03T00:56:29;14.98;;;6.28;;
63880;SDS011;50046;46.672;11.152;2022-07-03T00:56:41;15.43;;;6.30;;
63880;SDS011;50046;46.672;11.152;2022-07-03T00:56:59;14.25;;;6.22;;
63880;SDS011;50046;46.672;11.152;2022-07-03T00:57:13;14.50;;;6.32;;
63880;SDS011;50046;46.672;11.152;2022-07-03T00:57:27;14.95;;;6.35;;
63880;SDS011;50046;46.672;11.152;2022-07-03T00:57:41;14.65;;;6.18;;
63880;SDS011;50046;46.672;11.152;2022-07-03T00:57:56;14.48;;;6.18;;
63880;SDS011;50046;46.672;11.152;2022-07-03T00:58:07;14.35;;;6.30;;
63880;SDS011;50046;46.672;11.152;2022-07-03T00:58:18;14.40;;;6.30;;
63880;SDS011;50046;46.672;11.152;2022-07-03T00:58:29;14.50;;;6.57;;
63880;SDS011;50046;46.672;11.152;2022-07-03T00:58:40;14.70;;;6.72;;
63880;SDS011;50046;46.672;11.152;2022-07-03T00:58:52;15.95;;;7.00;;
63880;SDS011;50046;46.672;11.152;2022-07-03T00:59:04;16.23;;;6.90;;
63880;SDS011;50046;46.672;11.152;2022-07-03T00:59:15;16.10;;;6.70;;
63880;SDS011;50046;46.672;11.152;2022-07-03T00:59:25;15.27;;;6.50;;
63880;SDS011;50046;46.672;11.152;2022-07-03T00:59:35;14.57;;;6.38;;
63880;SDS011;50046;46.672;11.152;2022-07-03T00:59:46;14.80;;;6.53;;
63880;SDS011;50046;46.672;11.152;2022-07-03T00:59:56;14.13;;;6.40;;
63880;SDS011;50046;46.672;11.152;2022-07-03T01:00:08;14.20;;;6.35;;
63880;SDS011;50046;46.672;11.152;2022-07-03T01:00:19;13.63;;;6.32;;
63880;SDS011;50046;46.672;11.152;2022-07-03T01:00:29;13.63;;;6.50;;
63880;SDS011;50046;46.672;11.152;2022-07-03T01:00:40;15.10;;;6.63;;
63880;SDS011;50046;46.672;11.152;2022-07-03T01:00:52;15.10;;;6.57;;
63880;SDS011;50046;46.672;11.152;2022-07-03T01:01:03;15.55;;;6.60;;
63880;SDS011;50046;46.672;11.152;2022-07-03T01:01:16;15.07;;;6.45;;
63880;SDS011;50046;46.672;11.152;2022-07-03T01:01:29;15.60;;;6.70;;
63880;SDS011;50046;46.672;11.152;2022-07-03T01:01:42;14.18;;;6.72;;
63880;SDS011;50046;46.672;11.152;2022-07-03T01:03:15;14.07;;;6.35;;
63880;SDS011;50046;46.672;11.152;2022-07-03T01:03:31;15.80;;;6.25;;
63880;SDS011;50046;46.672;11.152;2022-07-03T01:03:45;16.67;;;6.47;;
63880;SDS011;50046;46.672;11.152;2022-07-03T01:04:09;16.47;;;6.33;;
63880;SDS011;50046;46.672;11.152;2022-07-03T01:04:22;16.50;;;6.50;;
63880;SDS011;50046;46.672;11.152;2022-07-03T01:05:36;14.07;;;6.40;;
63880;SDS011;50046;46.672;11.152;2022-07-03T01:05:51;14.65;;;6.25;;
63880;SDS011;50046;46.672;11.152;2022-07-03T01:06:03;14.38;;;6.25;;
63880;SDS011;50046;46.672;11.152;2022-07-03T01:06:20;14.65;;;6.43;;
63880;SDS011;50046;46.672;11.152;2022-07-03T01:06:35;14.77;;;6.53;;
63880;SDS011;50046;46.672;11.152;2022-07-03T01:07:11;14.02;;;6.47;;
63880;SDS011;50046;46.672;11.152;2022-07-03T01:07:32;13.17;;;6.30;;
63880;SDS011;50046;46.672;11.152;2022-07-03T01:08:01;15.13;;;6.18;;
63880;SDS011;50046;46.672;11.152;2022-07-03T01:08:43;13.30;;;6.10;;
63880;SDS011;50046;46.672;11.152;2022-07-03T01:08:58;14.95;;;6.20;;
63880;SDS011;50046;46.672;11.152;2022-07-03T01:09:13;15.98;;;6.22;;
63880;SDS011;50046;46.672;11.152;2022-07-03T01:09:37;16.50;;;6.40;;
63880;SDS011;50046;46.672;11.152;2022-07-03T01:10:31;13.05;;;6.18;;
63880;SDS011;50046;46.672;11.152;2022-07-03T01:11:40;15.60;;;6.60;;
63880;SDS011;50046;46.672;11.152;2022-07-03T01:12:03;16.25;;;6.70;;
63880;SDS011;50046;46.672;11.152;2022-07-03T01:13:00;13.32;;;6.30;;
63880;SDS011;50046;46.672;11.152;2022-07-03T01:13:37;15.10;;;6.57;;
63880;SDS011;50046;46.672;11.152;2022-07-03T01:14:24;14.07;;;6.30;;
63880;SDS011;50046;46.672;11.152;2022-07-03T01:15:23;13.43;;;6.43;;
63880;SDS011;50046;46.672;11.152;2022-07-03T01:17:06;14.63;;;6.40;;
63880;SDS011;50046;46.672;11.152;2022-07-03T01:17:32;12.45;;;6.22;;
63880;SDS011;50046;46.672;11.152;2022-07-03T01:17:58;13.57;;;6.22;;
63880;SDS011;50046;46.672;11.152;2022-07-03T01:18:30;13.98;;;6.40;;
63880;SDS011;50046;46.672;11.152;2022-07-03T01:19:43;14.65;;;6.50;;
63880;SDS011;50046;46.672;11.152;2022-07-03T01:20:05;14.18;;;6.40;;
63880;SDS011;50046;46.672;11.152;2022-07-03T01:20:17;13.88;;;6.20;;
63880;SDS011;50046;46.672;11.152;2022-07-03T01:20:35;14.32;;;6.28;;
63880;SDS011;50046;46.672;11.152;2022-07-03T01:20:52;13.88;;;6.40;;
63880;SDS011;50046;46.672;11.152;2022-07-03T01:21:08;13.30;;;6.50;;
63880;SDS011;50046;46.672;11.152;2022-07-03T01:21:39;14.20;;;6.15;;
63880;SDS011;50046;46.672;11.152;2022-07-03T01:22:44;14.13;;;6.30;;
63880;SDS011;50046;46.672;11.152;2022-07-03T01:22:59;13.50;;;6.05;;
63880;SDS011;50046;46.672;11.152;2022-07-03T01:23:18;14.32;;;6.30;;
63880;SDS011;50046;46.672;11.152;2022-07-03T01:23:46;15.30;;;6.60;;
63880;SDS011;50046;46.672;11.152;2022-07-03T01:26:06;15.77;;;6.47;;
63880;SDS011;50046;46.672;11.152;2022-07-03T01:26:20;14.50;;;6.40;;
63880;SDS011;50046;46.672;11.152;2022-07-03T01:26:38;13.82;;;6.30;;
63880;SDS011;50046;46.672;11.152;2022-07-03T01:26:53;13.52;;;6.40;;
63880;SDS011;50046;46.672;11.152;2022-07-03T01:27:07;14.70;;;6.57;;
63880;SDS011;50046;46.672;11.152;2022-07-03T01:28:18;13.80;;;6.20;;
63880;SDS011;50046;46.672;11.152;2022-07-03T01:28:30;14.57;;;6.13;;
63880;SDS011;50046;46.672;11.152;2022-07-03T01:28:46;14.15;;;6.05;;